sensor_id;sensor_type;location;lat;lon;timestamp;pressure;altitude;pressure_sealevel;temperature;humidity
54978;BME280;40873;47.522;19.106;2023-05-23T00:01:50;100080.38;;;16.72;100.00
54978;BME280;40873;47.522;19.106;2023-05-23T00:04:21;100073.38;;;16.71;100.00
54978;BME280;40873;47.522;19.106;2023-05-23T00:06:48;100075.41;;;16.67;100.00
54978;BME280;40873;47.522;19.106;2023-05-23T00:09:16;100068.81;;;16.62;100.00
54978;BME280;40873;47.522;19.106;2023-05-23T00:11:43;100067.97;;;16.61;100.00
54978;BME280;40873;47.522;19.106;2023-05-23T00:14:12;100058.00;;;16.54;100.00
54978;BME280;40873;47.522;19.106;2023-05-23T00:16:43;100059.69;;;16.55;100.00
54978;BME280;40873;47.522;19.106;2023-05-23T00:19:11;100060.38;;;16.47;100.00
54978;BME280;40873;47.522;19.106;2023-05-23T00:21:42;100057.72;;;16.47;100.00
54978;BME280;40873;47.522;19.106;2023-05-23T00:24:10;100062.75;;;16.40;100.00
54978;BME280;40873;47.522;19.106;2023-05-23T00:26:37;100057.41;;;16.31;100.00
54978;BME280;40873;47.522;19.106;2023-05-23T00:29:04;100063.31;;;16.34;100.00
54978;BME280;40873;47.522;19.106;2023-05-23T00:31:31;100062.19;;;16.37;100.00
54978;BME280;40873;47.522;19.106;2023-05-23T00:33:59;100065.00;;;16.35;100.00
54978;BME280;40873;47.522;19.106;2023-05-23T00:36:26;100065.25;;;16.32;100.00
54978;BME280;40873;47.522;19.106;2023-05-23T00:38:53;100069.03;;;16.30;100.00
54978;BME280;40873;47.522;19.106;2023-05-23T00:41:21;100066.22;;;16.22;100.00
54978;BME280;40873;47.522;19.106;2023-05-23T00:43:48;100067.22;;;16.21;100.00
54978;BME280;40873;47.522;19.106;2023-05-23T00:46:15;100067.06;;;16.22;100.00
54978;BME280;40873;47.522;19.106;2023-05-23T00:48:42;100069.56;;;16.14;100.00
54978;BME280;40873;47.522;19.106;2023-05-23T00:51:09;100067.44;;;16.08;100.00
54978;BME280;40873;47.522;19.106;2023-05-23T00:53:36;100070.41;;;16.14;100.00
54978;BME280;40873;47.522;19.106;2023-05-23T00:56:03;100069.00;;;16.20;100.00
54978;BME280;40873;47.522;19.106;2023-05-23T00:58:30;100054.84;;;16.10;100.00
54978;BME280;40873;47.522;19.106;2023-05-23T01:00:58;100059.16;;;16.11;100.00
54978;BME280;40873;47.522;19.106;2023-05-23T01:03:25;100061.66;;;16.03;100.00
54978;BME280;40873;47.522;19.106;2023-05-23T01:05:55;100059.69;;;15.95;100.00
54978;BME280;40873;47.522;19.106;2023-05-23T01:08:22;100061.22;;;15.98;100.00
54978;BME280;40873;47.522;19.106;2023-05-23T01:10:50;100056.22;;;16.04;100.00
54978;BME280;40873;47.522;19.106;2023-05-23T01:13:50;100052.16;;;16.00;100.00
54978;BME280;40873;47.522;19.106;2023-05-23T01:16:38;100059.53;;;15.97;100.00
54978;BME280;40873;47.522;19.106;2023-05-23T01:22:11;100048.13;;;15.85;100.00
54978;BME280;40873;47.522;19.106;2023-05-23T01:24:56;100046.47;;;15.84;100.00
54978;BME280;40873;47.522;19.106;2023-05-23T01:27:44;100050.09;;;15.83;100.00
54978;BME280;40873;47.522;19.106;2023-05-23T01:30:12;100049.97;;;15.84;100.00
54978;BME280;40873;47.522;19.106;2023-05-23T01:32:44;100051.66;;;15.85;100.00
54978;BME280;40873;47.522;19.106;2023-05-23T01:35:15;100054.28;;;15.76;100.00
54978;BME280;40873;47.522;19.106;2023-05-23T01:37:46;100050.25;;;15.81;100.00
54978;BME280;40873;47.522;19.106;2023-05-23T01:40:13;100048.63;;;15.69;100.00
54978;BME280;40873;47.522;19.106;2023-05-23T01:42:40;100059.41;;;15.68;100.00
54978;BME280;40873;47.522;19.106;2023-05-23T01:45:08;100045.72;;;15.72;100.00
54978;BME280;40873;47.522;19.106;2023-05-23T01:47:35;100051.56;;;15.66;100.00
54978;BME280;40873;47.522;19.106;2023-05-23T01:50:03;100048.13;;;15.54;100.00
54978;BME280;40873;47.522;19.106;2023-05-23T01:52:30;100048.81;;;15.56;100.00
54978;BME280;40873;47.522;19.106;2023-05-23T01:54:58;100047.13;;;15.55;100.00
54978;BME280;40873;47.522;19.106;2023-05-23T01:57:27;100037.53;;;15.43;100.00
54978;BME280;40873;47.522;19.106;2023-05-23T01:59:55;100041.19;;;15.42;100.00
54978;BME280;40873;47.522;19.106;2023-05-23T02:02:22;100041.59;;;15.38;100.00
54978;BME280;40873;47.522;19.106;2023-05-23T02:04:49;100032.78;;;15.37;100.00
54978;BME280;40873;47.522;19.106;2023-05-23T02:07:16;100032.63;;;15.39;100.00
54978;BME280;40873;47.522;19.106;2023-05-23T02:09:44;100031.19;;;15.34;100.00
54978;BME280;40873;47.522;19.106;2023-05-23T02:12:11;100025.09;;;15.23;100.00
54978;BME280;40873;47.522;19.106;2023-05-23T02:14:38;100036.28;;;15.17;100.00
54978;BME280;40873;47.522;19.106;2023-05-23T02:17:08;100029.38;;;15.14;100.00
54978;BME280;40873;47.522;19.106;2023-05-23T02:19:38;100024.22;;;15.13;100.00
54978;BME280;40873;47.522;19.106;2023-05-23T02:22:05;100027.84;;;15.12;100.00
54978;BME280;40873;47.522;19.106;2023-05-23T02:24:32;100033.28;;;15.10;100.00
54978;BME280;40873;47.522;19.106;2023-05-23T02:26:59;100027.53;;;15.05;100.00
54978;BME280;40873;47.522;19.106;2023-05-23T02:29:26;100033.47;;;14.97;100.00
54978;BME280;40873;47.522;19.106;2023-05-23T02:31:53;100032.63;;;14.97;100.00
54978;BME280;40873;47.522;19.106;2023-05-23T02:34:20;100036.03;;;14.88;100.00
54978;BME280;40873;47.522;19.106;2023-05-23T02:36:47;100033.00;;;14.92;100.00
54978;BME280;40873;47.522;19.106;2023-05-23T02:39:14;100029.13;;;14.96;100.00
54978;BME280;40873;47.522;19.106;2023-05-23T02:41:41;100024.53;;;14.98;100.00
54978;BME280;40873;47.522;19.106;2023-05-23T02:44:08;100033.47;;;14.97;100.00
54978;BME280;40873;47.522;19.106;2023-05-23T02:46:35;100035.03;;;15.00;100.00
54978;BME280;40873;47.522;19.106;2023-05-23T02:49:02;100026.34;;;14.98;100.00
54978;BME280;40873;47.522;19.106;2023-05-23T02:51:29;100022.59;;;15.00;100.00
54978;BME280;40873;47.522;19.106;2023-05-23T02:53:57;100027.19;;;14.98;100.00
54978;BME280;40873;47.522;19.106;2023-05-23T02:56:24;100022.44;;;15.02;100.00
54978;BME280;40873;47.522;19.106;2023-05-23T02:58:52;100018.09;;;15.01;100.00
54978;BME280;40873;47.522;19.106;2023-05-23T03:01:19;100019.78;;;15.02;100.00
54978;BME280;40873;47.522;19.106;2023-05-23T03:03:46;100020.44;;;14.94;100.00
54978;BME280;40873;47.522;19.106;2023-05-23T03:06:13;100017.78;;;14.94;100.00
54978;BME280;40873;47.522;19.106;2023-05-23T03:08:42;100017.34;;;14.89;100.00
54978;BME280;40873;47.522;19.106;2023-05-23T03:11:09;100014.03;;;14.97;100.00
54978;BME280;40873;47.522;19.106;2023-05-23T03:13:36;100017.78;;;14.94;100.00
54978;BME280;40873;47.522;19.106;2023-05-23T03:16:03;100020.69;;;14.91;100.00
54978;BME280;40873;47.522;19.106;2023-05-23T03:18:30;100027.38;;;14.86;100.00
54978;BME280;40873;47.522;19.106;2023-05-23T03:20:57;100023.88;;;14.85;100.00
54978;BME280;40873;47.522;19.106;2023-05-23T03:23:24;100030.84;;;14.86;100.00
54978;BME280;40873;47.522;19.106;2023-05-23T03:25:51;100034.25;;;14.88;100.00
54978;BME280;40873;47.522;19.106;2023-05-23T03:28:18;100032.44;;;14.89;100.00
54978;BME280;40873;47.522;19.106;2023-05-23T03:30:45;100025.03;;;14.92;100.00
54978;BME280;40873;47.522;19.106;2023-05-23T03:33:12;100039.28;;;14.91;100.00
54978;BME280;40873;47.522;19.106;2023-05-23T03:35:39;100031.91;;;14.95;100.00
54978;BME280;40873;47.522;19.106;2023-05-23T03:38:06;100032.63;;;14.97;100.00
54978;BME280;40873;47.522;19.106;2023-05-23T03:40:33;100029.50;;;14.92;100.00
54978;BME280;40873;47.522;19.106;2023-05-23T03:43:01;100026.59;;;14.95;100.00
54978;BME280;40873;47.522;19.106;2023-05-23T03:45:32;100018.00;;;15.02;100.00
54978;BME280;40873;47.522;19.106;2023-05-23T03:48:00;100030.19;;;15.05;100.00
54978;BME280;40873;47.522;19.106;2023-05-23T03:50:27;100021.81;;;15.10;100.00
54978;BME280;40873;47.522;19.106;2023-05-23T03:52:54;100028.81;;;15.11;100.00
54978;BME280;40873;47.522;19.106;2023-05-23T03:55:21;100030.75;;;15.08;100.00
54978;BME280;40873;47.522;19.106;2023-05-23T03:57:53;100031.34;;;15.12;100.00
54978;BME280;40873;47.522;19.106;2023-05-23T04:00:19;100024.81;;;15.16;100.00
54978;BME280;40873;47.522;19.106;2023-05-23T04:02:46;100023.69;;;15.19;100.00
54978;BME280;40873;47.522;19.106;2023-05-23T04:05:14;100024.41;;;15.21;100.00
54978;BME280;40873;47.522;19.106;2023-05-23T04:07:42;100022.34;;;15.24;100.00
54978;BME280;40873;47.522;19.106;2023-05-23T04:10:09;100023.50;;;15.31;100.00
54978;BME280;40873;47.522;19.106;2023-05-23T04:12:37;100025.56;;;15.28;100.00
54978;BME280;40873;47.522;19.106;2023-05-23T04:15:07;100030.03;;;15.27;100.00
54978;BME280;40873;47.522;19.106;2023-05-23T04:17:34;100034.28;;;15.30;100.00
54978;BME280;40873;47.522;19.106;2023-05-23T04:20:08;100033.47;;;15.39;100.00
54978;BME280;40873;47.522;19.106;2023-05-23T04:22:36;100034.63;;;15.46;100.00
54978;BME280;40873;47.522;19.106;2023-05-23T04:25:03;100035.19;;;15.50;100.00
54978;BME280;40873;47.522;19.106;2023-05-23T04:27:30;100035.50;;;15.56;100.00
54978;BME280;40873;47.522;19.106;2023-05-23T04:29:57;100030.53;;;15.63;100.00
54978;BME280;40873;47.522;19.106;2023-05-23T04:32:26;100032.44;;;15.72;100.00
54978;BME280;40873;47.522;19.106;2023-05-23T04:34:53;100036.09;;;15.81;100.00
54978;BME280;40873;47.522;19.106;2023-05-23T04:37:22;100036.66;;;15.84;100.00
54978;BME280;40873;47.522;19.106;2023-05-23T04:39:52;100038.41;;;15.95;100.00
54978;BME280;40873;47.522;19.106;2023-05-23T04:42:19;100038.69;;;16.02;100.00
54978;BME280;40873;47.522;19.106;2023-05-23T04:44:50;100034.78;;;16.06;100.00
54978;BME280;40873;47.522;19.106;2023-05-23T04:47:18;100027.81;;;16.14;100.00
54978;BME280;40873;47.522;19.106;2023-05-23T04:49:45;100021.97;;;16.21;100.00
54978;BME280;40873;47.522;19.106;2023-05-23T04:52:13;100030.78;;;16.31;100.00
54978;BME280;40873;47.522;19.106;2023-05-23T04:54:40;100022.53;;;16.34;100.00
54978;BME280;40873;47.522;19.106;2023-05-23T04:57:11;100021.88;;;16.41;100.00
54978;BME280;40873;47.522;19.106;2023-05-23T04:59:38;100018.22;;;16.52;100.00
54978;BME280;40873;47.522;19.106;2023-05-23T05:02:05;100018.09;;;16.63;100.00
54978;BME280;40873;47.522;19.106;2023-05-23T05:04:32;100023.81;;;16.68;100.00
54978;BME280;40873;47.522;19.106;2023-05-23T05:06:59;100022.88;;;16.79;100.00
54978;BME280;40873;47.522;19.106;2023-05-23T05:09:29;100024.56;;;16.80;100.00
54978;BME280;40873;47.522;19.106;2023-05-23T05:11:57;100025.00;;;16.85;100.00
54978;BME280;40873;47.522;19.106;2023-05-23T05:14:25;100029.91;;;16.90;100.00
54978;BME280;40873;47.522;19.106;2023-05-23T05:16:53;100031.59;;;16.91;100.00
54978;BME280;40873;47.522;19.106;2023-05-23T05:19:20;100024.69;;;17.08;100.00
54978;BME280;40873;47.522;19.106;2023-05-23T05:21:47;100031.81;;;17.17;100.00
54978;BME280;40873;47.522;19.106;2023-05-23T05:24:14;100025.38;;;17.29;100.00
54978;BME280;40873;47.522;19.106;2023-05-23T05:26:42;100023.53;;;17.39;100.00
54978;BME280;40873;47.522;19.106;2023-05-23T05:29:09;100028.81;;;17.49;100.00
54978;BME280;40873;47.522;19.106;2023-05-23T05:31:37;100022.50;;;17.60;100.00
54978;BME280;40873;47.522;19.106;2023-05-23T05:34:04;100025.00;;;17.71;100.00
54978;BME280;40873;47.522;19.106;2023-05-23T05:36:31;100024.97;;;17.80;100.00
54978;BME280;40873;47.522;19.106;2023-05-23T05:38:58;100021.09;;;17.93;100.00
54978;BME280;40873;47.522;19.106;2023-05-23T05:41:25;100028.78;;;18.05;100.00
54978;BME280;40873;47.522;19.106;2023-05-23T05:43:52;100029.19;;;18.11;100.00
54978;BME280;40873;47.522;19.106;2023-05-23T05:46:20;100028.44;;;18.18;100.00
54978;BME280;40873;47.522;19.106;2023-05-23T05:48:46;100030.09;;;18.19;100.00
54978;BME280;40873;47.522;19.106;2023-05-23T05:51:14;100018.41;;;18.30;100.00
54978;BME280;40873;47.522;19.106;2023-05-23T05:53:40;100016.50;;;18.40;100.00
54978;BME280;40873;47.522;19.106;2023-05-23T05:56:08;100022.63;;;18.50;100.00
54978;BME280;40873;47.522;19.106;2023-05-23T05:58:35;100014.97;;;18.55;100.00
54978;BME280;40873;47.522;19.106;2023-05-23T06:01:02;100023.22;;;18.62;100.00
54978;BME280;40873;47.522;19.106;2023-05-23T06:03:29;100018.59;;;18.64;100.00
54978;BME280;40873;47.522;19.106;2023-05-23T06:05:56;100019.47;;;18.55;100.00
54978;BME280;40873;47.522;19.106;2023-05-23T06:08:23;100021.63;;;18.51;100.00
54978;BME280;40873;47.522;19.106;2023-05-23T06:10:51;100018.97;;;18.51;100.00
54978;BME280;40873;47.522;19.106;2023-05-23T06:13:17;100023.69;;;18.57;100.00
54978;BME280;40873;47.522;19.106;2023-05-23T06:15:48;100021.88;;;18.58;100.00
54978;BME280;40873;47.522;19.106;2023-05-23T06:18:15;100013.09;;;18.66;100.00
54978;BME280;40873;47.522;19.106;2023-05-23T06:20:42;100019.03;;;18.77;100.00
54978;BME280;40873;47.522;19.106;2023-05-23T06:23:09;100021.22;;;18.92;100.00
54978;BME280;40873;47.522;19.106;2023-05-23T06:25:36;100025.00;;;19.07;100.00
54978;BME280;40873;47.522;19.106;2023-05-23T06:28:03;100027.56;;;19.16;100.00
54978;BME280;40873;47.522;19.106;2023-05-23T06:30:30;100015.09;;;19.25;97.26
54978;BME280;40873;47.522;19.106;2023-05-23T06:32:57;100025.38;;;19.38;99.14
54978;BME280;40873;47.522;19.106;2023-05-23T06:35:24;100017.91;;;19.41;100.00
54978;BME280;40873;47.522;19.106;2023-05-23T06:37:51;100019.53;;;19.60;97.76
54978;BME280;40873;47.522;19.106;2023-05-23T06:40:18;100016.13;;;19.76;97.23
54978;BME280;40873;47.522;19.106;2023-05-23T06:42:45;100016.53;;;19.89;96.61
54978;BME280;40873;47.522;19.106;2023-05-23T06:45:13;100025.78;;;20.03;92.76
54978;BME280;40873;47.522;19.106;2023-05-23T06:47:42;100007.41;;;20.16;93.26
54978;BME280;40873;47.522;19.106;2023-05-23T06:50:14;100008.47;;;20.32;92.43
54978;BME280;40873;47.522;19.106;2023-05-23T06:52:41;100013.50;;;20.43;91.60
54978;BME280;40873;47.522;19.106;2023-05-23T06:55:08;100012.22;;;20.63;89.59
54978;BME280;40873;47.522;19.106;2023-05-23T06:57:35;100011.56;;;20.69;88.54
54978;BME280;40873;47.522;19.106;2023-05-23T07:00:03;100010.44;;;20.80;86.23
54978;BME280;40873;47.522;19.106;2023-05-23T07:02:30;100008.22;;;20.92;89.26
54978;BME280;40873;47.522;19.106;2023-05-23T07:04:57;100001.38;;;20.97;87.01
54978;BME280;40873;47.522;19.106;2023-05-23T07:07:24;100001.03;;;21.08;88.07
54978;BME280;40873;47.522;19.106;2023-05-23T07:09:51;99991.47;;;21.22;90.62
54978;BME280;40873;47.522;19.106;2023-05-23T07:12:19;99989.97;;;21.36;86.51
54978;BME280;40873;47.522;19.106;2023-05-23T07:14:46;99987.91;;;21.46;83.53
54978;BME280;40873;47.522;19.106;2023-05-23T07:17:13;99984.53;;;21.60;85.06
54978;BME280;40873;47.522;19.106;2023-05-23T07:19:41;99979.44;;;21.74;84.11
54978;BME280;40873;47.522;19.106;2023-05-23T07:22:08;99981.44;;;21.80;82.54
54978;BME280;40873;47.522;19.106;2023-05-23T07:24:35;99979.22;;;21.83;78.27
54978;BME280;40873;47.522;19.106;2023-05-23T07:27:02;99981.22;;;21.89;78.75
54978;BME280;40873;47.522;19.106;2023-05-23T07:29:29;99985.84;;;22.04;78.13
54978;BME280;40873;47.522;19.106;2023-05-23T07:31:58;99982.84;;;22.07;77.24
54978;BME280;40873;47.522;19.106;2023-05-23T07:34:25;99981.28;;;22.21;76.82
54978;BME280;40873;47.522;19.106;2023-05-23T07:36:56;99977.84;;;22.35;75.75
54978;BME280;40873;47.522;19.106;2023-05-23T07:39:23;99976.75;;;22.44;77.27
54978;BME280;40873;47.522;19.106;2023-05-23T07:41:50;99982.19;;;22.59;78.99
54978;BME280;40873;47.522;19.106;2023-05-23T07:44:17;99991.22;;;22.66;74.31
54978;BME280;40873;47.522;19.106;2023-05-23T07:46:47;99979.28;;;22.68;72.90
54978;BME280;40873;47.522;19.106;2023-05-23T07:49:14;99970.66;;;22.73;74.25
54978;BME280;40873;47.522;19.106;2023-05-23T07:51:41;99966.09;;;22.82;75.92
54978;BME280;40873;47.522;19.106;2023-05-23T07:56:35;99968.66;;;22.98;77.06
54978;BME280;40873;47.522;19.106;2023-05-23T07:59:04;99972.56;;;22.95;73.73
54978;BME280;40873;47.522;19.106;2023-05-23T08:01:31;99968.94;;;23.03;75.12
54978;BME280;40873;47.522;19.106;2023-05-23T08:03:58;99963.91;;;23.00;71.58
54978;BME280;40873;47.522;19.106;2023-05-23T08:06:25;99972.38;;;23.12;72.95
54978;BME280;40873;47.522;19.106;2023-05-23T08:08:52;99963.88;;;23.23;71.34
54978;BME280;40873;47.522;19.106;2023-05-23T08:11:19;99966.09;;;23.34;72.73
54978;BME280;40873;47.522;19.106;2023-05-23T08:13:46;99966.59;;;23.52;68.94
54978;BME280;40873;47.522;19.106;2023-05-23T08:16:13;99966.19;;;23.56;71.42
54978;BME280;40873;47.522;19.106;2023-05-23T08:18:40;99967.16;;;23.63;72.54
54978;BME280;40873;47.522;19.106;2023-05-23T08:21:07;99970.69;;;23.78;71.53
54978;BME280;40873;47.522;19.106;2023-05-23T08:23:34;99969.00;;;23.92;71.61
54978;BME280;40873;47.522;19.106;2023-05-23T08:26:01;99971.69;;;24.06;71.27
54978;BME280;40873;47.522;19.106;2023-05-23T08:28:29;99979.03;;;23.98;66.33
54978;BME280;40873;47.522;19.106;2023-05-23T08:30:56;99967.50;;;24.04;65.36
54978;BME280;40873;47.522;19.106;2023-05-23T08:33:23;99969.66;;;23.94;66.16
54978;BME280;40873;47.522;19.106;2023-05-23T08:35:50;99977.19;;;23.84;65.48
54978;BME280;40873;47.522;19.106;2023-05-23T08:38:17;99970.78;;;23.99;64.56
54978;BME280;40873;47.522;19.106;2023-05-23T08:40:49;99972.16;;;23.95;64.84
54978;BME280;40873;47.522;19.106;2023-05-23T08:43:18;99973.44;;;24.14;67.34
54978;BME280;40873;47.522;19.106;2023-05-23T08:45:46;99965.75;;;24.32;65.66
54978;BME280;40873;47.522;19.106;2023-05-23T08:48:17;99962.25;;;24.53;67.79
54978;BME280;40873;47.522;19.106;2023-05-23T08:50:47;99965.69;;;24.62;62.31
54978;BME280;40873;47.522;19.106;2023-05-23T08:53:15;99962.84;;;24.70;62.24
54978;BME280;40873;47.522;19.106;2023-05-23T08:55:49;99956.16;;;24.66;61.58
54978;BME280;40873;47.522;19.106;2023-05-23T08:58:21;99969.13;;;24.99;63.32
54978;BME280;40873;47.522;19.106;2023-05-23T09:00:54;99961.69;;;25.29;61.28
54978;BME280;40873;47.522;19.106;2023-05-23T09:03:21;99953.00;;;25.33;59.87
54978;BME280;40873;47.522;19.106;2023-05-23T09:05:49;99955.28;;;25.71;61.60
54978;BME280;40873;47.522;19.106;2023-05-23T09:08:16;99953.34;;;26.00;59.43
54978;BME280;40873;47.522;19.106;2023-05-23T09:10:45;99955.03;;;26.07;58.96
54978;BME280;40873;47.522;19.106;2023-05-23T09:13:12;99963.53;;;25.98;57.85
54978;BME280;40873;47.522;19.106;2023-05-23T09:16:01;99962.75;;;25.69;58.24
54978;BME280;40873;47.522;19.106;2023-05-23T09:18:38;99960.16;;;25.82;57.38
54978;BME280;40873;47.522;19.106;2023-05-23T09:21:10;99959.78;;;25.92;58.60
54978;BME280;40873;47.522;19.106;2023-05-23T09:23:39;99954.91;;;26.35;61.11
54978;BME280;40873;47.522;19.106;2023-05-23T09:26:10;99952.50;;;26.54;56.60
54978;BME280;40873;47.522;19.106;2023-05-23T09:28:38;99958.84;;;26.26;57.87
54978;BME280;40873;47.522;19.106;2023-05-23T09:31:07;99956.44;;;26.44;58.79
54978;BME280;40873;47.522;19.106;2023-05-23T09:33:47;99945.03;;;26.89;55.95
54978;BME280;40873;47.522;19.106;2023-05-23T09:36:15;99957.69;;;26.62;53.93
54978;BME280;40873;47.522;19.106;2023-05-23T09:38:44;99951.88;;;26.65;54.81
54978;BME280;40873;47.522;19.106;2023-05-23T09:41:12;99947.09;;;26.80;51.10
54978;BME280;40873;47.522;19.106;2023-05-23T09:43:51;99951.69;;;26.86;51.73
54978;BME280;40873;47.522;19.106;2023-05-23T09:46:20;99936.06;;;26.62;51.67
54978;BME280;40873;47.522;19.106;2023-05-23T09:48:48;99944.81;;;27.03;51.67
54978;BME280;40873;47.522;19.106;2023-05-23T09:51:21;99941.47;;;27.35;52.84
54978;BME280;40873;47.522;19.106;2023-05-23T09:53:49;99934.31;;;27.60;52.30
54978;BME280;40873;47.522;19.106;2023-05-23T09:56:16;99940.38;;;27.69;50.65
54978;BME280;40873;47.522;19.106;2023-05-23T09:58:47;99947.50;;;26.90;50.38
54978;BME280;40873;47.522;19.106;2023-05-23T10:01:16;99944.81;;;25.96;48.45
54978;BME280;40873;47.522;19.106;2023-05-23T10:03:48;99947.06;;;25.86;54.56
54978;BME280;40873;47.522;19.106;2023-05-23T10:06:25;99944.19;;;25.53;55.55
54978;BME280;40873;47.522;19.106;2023-05-23T10:09:06;99934.19;;;25.88;50.20
54978;BME280;40873;47.522;19.106;2023-05-23T10:14:06;99929.22;;;26.79;51.91
54978;BME280;40873;47.522;19.106;2023-05-23T10:17:28;99938.56;;;26.96;49.16
54978;BME280;40873;47.522;19.106;2023-05-23T10:19:37;99928.56;;;26.57;46.14
54978;BME280;40873;47.522;19.106;2023-05-23T10:22:11;99917.94;;;27.28;47.90
54978;BME280;40873;47.522;19.106;2023-05-23T10:24:39;99917.13;;;27.15;48.45
54978;BME280;40873;47.522;19.106;2023-05-23T10:27:06;99919.59;;;27.29;47.35
54978;BME280;40873;47.522;19.106;2023-05-23T10:29:34;99925.28;;;27.86;47.77
54978;BME280;40873;47.522;19.106;2023-05-23T10:32:03;99924.03;;;28.27;47.52
54978;BME280;40873;47.522;19.106;2023-05-23T10:37:55;99912.19;;;28.78;44.99
54978;BME280;40873;47.522;19.106;2023-05-23T10:40:45;99926.94;;;27.87;45.52
54978;BME280;40873;47.522;19.106;2023-05-23T10:43:39;99911.94;;;27.20;45.85
54978;BME280;40873;47.522;19.106;2023-05-23T10:46:11;99911.91;;;26.93;47.71
54978;BME280;40873;47.522;19.106;2023-05-23T10:48:42;99920.88;;;26.61;49.30
54978;BME280;40873;47.522;19.106;2023-05-23T10:51:11;99917.84;;;26.09;51.89
54978;BME280;40873;47.522;19.106;2023-05-23T10:56:08;99907.97;;;26.83;51.01
54978;BME280;40873;47.522;19.106;2023-05-23T10:58:37;99900.06;;;27.08;49.63
54978;BME280;40873;47.522;19.106;2023-05-23T11:01:07;99897.63;;;27.71;48.97
54978;BME280;40873;47.522;19.106;2023-05-23T11:09:11;99886.50;;;28.80;45.04
54978;BME280;40873;47.522;19.106;2023-05-23T11:17:14;99880.84;;;28.82;47.22
54978;BME280;40873;47.522;19.106;2023-05-23T11:20:04;99881.13;;;28.49;48.04
54978;BME280;40873;47.522;19.106;2023-05-23T11:22:33;99881.13;;;28.49;46.59
54978;BME280;40873;47.522;19.106;2023-05-23T11:25:05;99870.00;;;28.25;47.80
54978;BME280;40873;47.522;19.106;2023-05-23T11:27:37;99873.09;;;28.60;46.81
54978;BME280;40873;47.522;19.106;2023-05-23T11:30:15;99872.28;;;28.60;46.53
54978;BME280;40873;47.522;19.106;2023-05-23T11:32:53;99860.03;;;29.01;47.35
54978;BME280;40873;47.522;19.106;2023-05-23T11:35:25;99856.13;;;28.65;47.16
54978;BME280;40873;47.522;19.106;2023-05-23T11:37:55;99854.81;;;28.74;47.19
54978;BME280;40873;47.522;19.106;2023-05-23T11:40:38;99854.53;;;28.82;46.27
54978;BME280;40873;47.522;19.106;2023-05-23T11:43:14;99851.47;;;28.97;45.25
54978;BME280;40873;47.522;19.106;2023-05-23T11:45:42;99841.84;;;29.19;43.14
54978;BME280;40873;47.522;19.106;2023-05-23T11:48:14;99838.19;;;29.81;45.50
54978;BME280;40873;47.522;19.106;2023-05-23T11:50:50;99834.97;;;29.35;43.24
54978;BME280;40873;47.522;19.106;2023-05-23T11:53:20;99836.59;;;28.81;44.61
54978;BME280;40873;47.522;19.106;2023-05-23T11:55:53;99819.56;;;29.47;45.36
54978;BME280;40873;47.522;19.106;2023-05-23T11:58:21;99819.28;;;29.19;43.51
54978;BME280;40873;47.522;19.106;2023-05-23T12:00:49;99818.47;;;29.00;43.82
54978;BME280;40873;47.522;19.106;2023-05-23T12:03:18;99806.22;;;29.64;42.47
54978;BME280;40873;47.522;19.106;2023-05-23T12:05:45;99818.84;;;29.22;43.02
54978;BME280;40873;47.522;19.106;2023-05-23T12:08:13;99820.66;;;29.10;44.16
54978;BME280;40873;47.522;19.106;2023-05-23T12:10:56;99813.41;;;29.22;43.27
54978;BME280;40873;47.522;19.106;2023-05-23T12:13:24;99800.81;;;29.09;45.63
54978;BME280;40873;47.522;19.106;2023-05-23T12:15:58;99793.66;;;29.45;44.94
54978;BME280;40873;47.522;19.106;2023-05-23T12:18:30;99796.38;;;28.90;44.60
54978;BME280;40873;47.522;19.106;2023-05-23T12:21:05;99783.00;;;28.95;45.75
54978;BME280;40873;47.522;19.106;2023-05-23T12:23:35;99797.06;;;28.85;44.52
54978;BME280;40873;47.522;19.106;2023-05-23T12:26:05;99781.59;;;29.59;43.57
54978;BME280;40873;47.522;19.106;2023-05-23T12:28:37;99786.69;;;29.56;42.20
54978;BME280;40873;47.522;19.106;2023-05-23T12:31:19;99776.22;;;29.83;41.83
54978;BME280;40873;47.522;19.106;2023-05-23T12:33:47;99767.66;;;29.19;42.76
54978;BME280;40873;47.522;19.106;2023-05-23T12:36:26;99775.31;;;29.10;42.34
54978;BME280;40873;47.522;19.106;2023-05-23T12:39:02;99769.78;;;28.99;43.68
54978;BME280;40873;47.522;19.106;2023-05-23T12:41:29;99769.16;;;29.52;42.86
54978;BME280;40873;47.522;19.106;2023-05-23T12:43:58;99764.97;;;29.67;42.32
54978;BME280;40873;47.522;19.106;2023-05-23T12:46:26;99766.91;;;29.79;42.42
54978;BME280;40873;47.522;19.106;2023-05-23T12:48:53;99766.81;;;29.37;42.45
54978;BME280;40873;47.522;19.106;2023-05-23T12:51:21;99755.47;;;29.40;43.00
54978;BME280;40873;47.522;19.106;2023-05-23T12:53:48;99761.78;;;29.22;43.24
54978;BME280;40873;47.522;19.106;2023-05-23T12:56:15;99759.97;;;28.98;41.78
54978;BME280;40873;47.522;19.106;2023-05-23T12:58:42;99746.50;;;29.99;40.94
54978;BME280;40873;47.522;19.106;2023-05-23T13:01:09;99743.66;;;30.06;38.68
54978;BME280;40873;47.522;19.106;2023-05-23T13:03:37;99740.69;;;29.54;38.86
54978;BME280;40873;47.522;19.106;2023-05-23T13:06:04;99736.38;;;29.46;39.08
54978;BME280;40873;47.522;19.106;2023-05-23T13:08:32;99738.97;;;29.71;39.32
54978;BME280;40873;47.522;19.106;2023-05-23T13:10:59;99740.56;;;30.02;38.26
54978;BME280;40873;47.522;19.106;2023-05-23T13:13:26;99737.69;;;30.27;38.27
54978;BME280;40873;47.522;19.106;2023-05-23T13:15:53;99731.28;;;30.45;37.27